Cheryl Stegbauer — WYN6276 — position and weather

sailwx.info

Track history (hours):
 
Tides and Currents Weather Stations Pressure Air Temp Water Temp Dewpoint Dewpoint Depression Visibility Wind Speed Wind Dir Waves Ship Positions

Cheryl Stegbauer

Owner: SOUTHERN TOWING COMPANY LLC., MEMPHIS, TN. More information available from US FCC via Universal Licensing System and Coast Guard Vessel Documentation Center.

Last reported at 2018-Feb-24 02:10 UTC. Time now 2018-Feb-24 15:44 UTC.
Position N 32°40' W 091°08'.

Length 35 m; draft 8 m.

Type: Towing. MMSI: 366917160.

Date/timePositionNaut miles runAvg speedWind from/ knotsBaromVisibWave heightAir tempDewpointWater temp
2018-Feb-24 02:10N 32°40' W 091°08'3 3.6
2018-Feb-24 01:23N 32°37' W 091°09'1 3.6
2018-Feb-24 01:00N 32°36' W 091°08'2 4.0
2018-Feb-24 00:26N 32°34' W 091°06'2 3.8
2018-Feb-24 00:00N 32°32' W 091°06'2 4.5
2018-Feb-23 23:30N 32°30' W 091°07'2 3.4
2018-Feb-23 23:00N 32°29' W 091°07'2 4.5
2018-Feb-23 22:30N 32°27' W 091°05'2 4.2
2018-Feb-23 22:00N 32°26' W 091°02'2 4.0
2018-Feb-23 21:30N 32°25' W 091°00'2 3.5
2018-Feb-23 21:00N 32°24' W 090°60'2 3.9
2018-Feb-23 20:30N 32°22' W 091°00'2 4.2
2018-Feb-23 20:00N 32°21' W 090°58'2 4.2
2018-Feb-23 19:30N 32°21' W 090°56'2 3.3
2018-Feb-23 19:01N 32°20' W 090°54'2 4.0
2018-Feb-23 18:30N 32°18' W 090°56'2 4.6
2018-Feb-23 18:00N 32°16' W 090°58'2 4.0
2018-Feb-23 17:30N 32°15' W 090°59'2 4.6
2018-Feb-23 17:00N 32°12' W 090°59'1 1.3
2018-Feb-23 16:30N 32°12' W 090°59'2 4.2
2018-Feb-23 16:00N 32°10' W 090°60'2 4.7
2018-Feb-23 15:30N 32°08' W 091°01'4 5.1
2018-Feb-23 14:47N 32°08' W 091°05'1 4.6
2018-Feb-23 14:30N 32°07' W 091°07'3 5.6
2018-Feb-23 13:58N 32°05' W 091°04'3 4.6
2018-Feb-23 13:22N 32°02' W 091°04'  
2018-Feb-18 08:24N 32°07' W 091°07'4 8.8
2018-Feb-18 07:59N 32°07' W 091°02'510.0
2018-Feb-18 07:30N 32°11' W 090°60'510.6
2018-Feb-18 07:00N 32°16' W 090°57'5 9.2
2018-Feb-18 06:30N 32°20' W 090°55'5 9.1
2018-Feb-18 06:00N 32°22' W 091°00'4 9.0
2018-Feb-18 05:30N 32°26' W 091°02'510.0
2018-Feb-18 05:00N 32°28' W 091°07'510.2
2018-Feb-18 04:30N 32°33' W 091°06'  
Track history (hours):
 
Tides and Currents Weather Stations Pressure Air Temp Water Temp Dewpoint Dewpoint Depression Visibility Wind Speed Wind Dir Waves Ship Positions

Cheryl Stegbauer

Owner: SOUTHERN TOWING COMPANY LLC., MEMPHIS, TN. More information available from US FCC via Universal Licensing System and Coast Guard Vessel Documentation Center.

Last reported at 2018-Feb-24 02:10 UTC. Time now 2018-Feb-24 15:44 UTC.
Position N 32°40' W 091°08'.

Length 35 m; draft 8 m.

Type: Towing. MMSI: 366917160.

Date/timePositionNaut miles runAvg speedWind from/ knotsBaromVisibWave heightAir tempDewpointWater temp
2018-Feb-24 02:10N 32°40' W 091°08'3 3.6
2018-Feb-24 01:23N 32°37' W 091°09'1 3.6
2018-Feb-24 01:00N 32°36' W 091°08'2 4.0
2018-Feb-24 00:26N 32°34' W 091°06'2 3.8
2018-Feb-24 00:00N 32°32' W 091°06'2 4.5
2018-Feb-23 23:30N 32°30' W 091°07'2 3.4
2018-Feb-23 23:00N 32°29' W 091°07'2 4.5
2018-Feb-23 22:30N 32°27' W 091°05'2 4.2
2018-Feb-23 22:00N 32°26' W 091°02'2 4.0
2018-Feb-23 21:30N 32°25' W 091°00'2 3.5
2018-Feb-23 21:00N 32°24' W 090°60'2 3.9
2018-Feb-23 20:30N 32°22' W 091°00'2 4.2
2018-Feb-23 20:00N 32°21' W 090°58'2 4.2
2018-Feb-23 19:30N 32°21' W 090°56'2 3.3
2018-Feb-23 19:01N 32°20' W 090°54'2 4.0
2018-Feb-23 18:30N 32°18' W 090°56'2 4.6
2018-Feb-23 18:00N 32°16' W 090°58'2 4.0
2018-Feb-23 17:30N 32°15' W 090°59'2 4.6
2018-Feb-23 17:00N 32°12' W 090°59'1 1.3
2018-Feb-23 16:30N 32°12' W 090°59'2 4.2
2018-Feb-23 16:00N 32°10' W 090°60'2 4.7
2018-Feb-23 15:30N 32°08' W 091°01'4 5.1
2018-Feb-23 14:47N 32°08' W 091°05'1 4.6
2018-Feb-23 14:30N 32°07' W 091°07'3 5.6
2018-Feb-23 13:58N 32°05' W 091°04'3 4.6
2018-Feb-23 13:22N 32°02' W 091°04'  
2018-Feb-18 08:24N 32°07' W 091°07'4 8.8
2018-Feb-18 07:59N 32°07' W 091°02'510.0
2018-Feb-18 07:30N 32°11' W 090°60'510.6
2018-Feb-18 07:00N 32°16' W 090°57'5 9.2
2018-Feb-18 06:30N 32°20' W 090°55'5 9.1
2018-Feb-18 06:00N 32°22' W 091°00'4 9.0
2018-Feb-18 05:30N 32°26' W 091°02'510.0
2018-Feb-18 05:00N 32°28' W 091°07'510.2
2018-Feb-18 04:30N 32°33' W 091°06'  

Dump ship's entire track history